Time;durP1;ratioP1;P1;durP2;ratioP2;P2;SDS_P1;SDS_P2;PMS_P1;PMS_P2;Temp;Humidity;BMP_temperature;BMP_pressure;BME280_temperature;BME280_humidity;BME280_pressure;Samples;Min_cycle;Max_cycle;Signal;HPM_P1;HPM_P2
2023/06/28 00:01:36;;;;;;;14.95;7.57;;;;;;;18.88;100.00;97182.78;5039112;28;20017;-79
2023/06/28 00:04:03;;;;;;;15.23;7.68;;;;;;;18.98;100.00;97187.28;5035198;28;20036;-78
2023/06/28 00:06:31;;;;;;;20.77;7.13;;;;;;;18.88;100.00;97193.63;5035697;28;20036;-78
2023/06/28 00:08:59;;;;;;;12.85;7.32;;;;;;;18.84;100.00;97186.81;5035410;28;20025;-78
2023/06/28 00:11:26;;;;;;;19.45;7.30;;;;;;;18.79;100.00;97194.56;5029983;28;20014;-78
2023/06/28 00:13:53;;;;;;;12.57;8.07;;;;;;;18.86;100.00;97194.78;5018779;28;20060;-79
2023/06/28 00:16:19;;;;;;;18.80;7.78;;;;;;;18.83;100.00;97193.22;5035897;28;20373;-78
2023/06/28 00:18:45;;;;;;;16.30;8.05;;;;;;;18.78;100.00;97202.84;5018602;28;20175;-79
2023/06/28 00:21:13;;;;;;;13.65;7.32;;;;;;;18.73;100.00;97210.59;5053036;28;20481;-78
2023/06/28 00:23:39;;;;;;;18.10;8.30;;;;;;;18.59;100.00;97209.25;5023237;28;20025;-78
2023/06/28 00:26:05;;;;;;;15.68;8.40;;;;;;;18.49;100.00;97205.72;5017653;28;20031;-79
2023/06/28 00:28:30;;;;;;;12.93;8.35;;;;;;;18.38;100.00;97204.06;5018857;28;20025;-79
2023/06/28 00:30:56;;;;;;;13.73;8.15;;;;;;;18.27;100.00;97198.84;5019053;28;20028;-79
2023/06/28 00:33:21;;;;;;;12.02;8.00;;;;;;;18.11;100.00;97198.66;5035344;28;20131;-78
2023/06/28 00:35:47;;;;;;;14.68;8.90;;;;;;;18.09;100.00;97207.94;5042416;28;20034;-78
2023/06/28 00:38:13;;;;;;;17.77;8.38;;;;;;;18.08;100.00;97203.53;5033437;28;20025;-78
2023/06/28 00:40:38;;;;;;;15.35;8.98;;;;;;;18.05;100.00;97210.09;5035309;28;20033;-78
2023/06/28 00:43:04;;;;;;;14.52;8.40;;;;;;;18.07;100.00;97208.09;5034982;28;20024;-78
2023/06/28 00:45:29;;;;;;;14.02;8.52;;;;;;;18.16;100.00;97211.75;5018504;28;20578;-79
2023/06/28 00:47:55;;;;;;;13.93;8.23;;;;;;;18.18;100.00;97209.75;5022964;28;20041;-79
2023/06/28 00:50:21;;;;;;;16.25;8.30;;;;;;;18.20;100.00;97213.16;5038323;28;20138;-79
2023/06/28 00:52:46;;;;;;;14.10;7.93;;;;;;;18.28;100.00;97213.25;5054453;28;20025;-79
2023/06/28 00:55:12;;;;;;;19.20;8.68;;;;;;;18.31;100.00;97207.53;5054641;28;20020;-79
2023/06/28 00:57:38;;;;;;;13.55;8.30;;;;;;;18.33;100.00;97205.53;5037611;28;20056;-78
2023/06/28 01:00:09;;;;;;;14.32;8.10;;;;;;;18.40;100.00;97215.59;5055140;28;20059;-79
2023/06/28 01:02:35;;;;;;;11.77;8.27;;;;;;;18.36;100.00;97218.78;5055167;28;20027;-79
2023/06/28 01:05:00;;;;;;;15.45;8.75;;;;;;;18.34;100.00;97218.06;5072359;28;20024;-79
2023/06/28 01:07:27;;;;;;;15.25;8.63;;;;;;;18.41;100.00;97206.47;5053864;28;20095;-79
2023/06/28 01:09:56;;;;;;;15.20;9.65;;;;;;;18.49;100.00;97211.16;5054580;28;20024;-78
2023/06/28 01:12:23;;;;;;;16.98;10.40;;;;;;;18.58;100.00;97212.13;5054716;28;20025;-78
2023/06/28 01:14:49;;;;;;;15.25;8.00;;;;;;;18.59;100.00;97209.25;5053808;28;20493;-78
2023/06/28 01:17:14;;;;;;;17.50;8.50;;;;;;;18.49;100.00;97203.03;5037569;28;20028;-77
2023/06/28 01:19:40;;;;;;;13.38;8.48;;;;;;;18.49;100.00;97207.59;5053889;28;20029;-78
2023/06/28 01:22:09;;;;;;;12.77;8.43;;;;;;;18.49;100.00;97204.88;5054536;28;20070;-78
2023/06/28 01:24:36;;;;;;;14.45;8.73;;;;;;;18.55;100.00;97215.97;5054500;28;20020;-77
2023/06/28 01:27:02;;;;;;;13.77;8.38;;;;;;;18.50;100.00;97202.03;5036911;28;20065;-78
2023/06/28 01:29:28;;;;;;;13.38;8.63;;;;;;;18.47;100.00;97204.16;5053887;28;20553;-78
2023/06/28 01:31:55;;;;;;;17.58;8.55;;;;;;;18.49;100.00;97208.44;5036904;28;20028;-78
2023/06/28 01:34:28;;;;;;;16.55;8.57;;;;;;;18.36;100.00;97205.22;5054027;28;20085;-78
2023/06/28 01:36:55;;;;;;;11.52;7.90;;;;;;;18.33;100.00;97213.66;5047827;28;20029;-80
2023/06/28 01:39:21;;;;;;;15.82;8.23;;;;;;;18.33;100.00;97211.78;5053905;28;20429;-79
2023/06/28 01:41:47;;;;;;;14.15;8.05;;;;;;;18.31;100.00;97218.34;5053634;28;20373;-80
2023/06/28 01:44:13;;;;;;;14.52;8.00;;;;;;;18.17;100.00;97206.19;5071429;28;20039;-79
2023/06/28 01:46:39;;;;;;;12.48;7.47;;;;;;;18.16;100.00;97209.88;5071187;28;20491;-79
2023/06/28 01:49:06;;;;;;;12.23;8.30;;;;;;;18.10;100.00;97204.22;5036851;28;20040;-79
2023/06/28 01:51:33;;;;;;;14.85;7.90;;;;;;;18.16;100.00;97209.03;5036862;28;20024;-79
2023/06/28 01:53:59;;;;;;;16.88;8.40;;;;;;;18.09;100.00;97218.78;5033458;28;20056;-79
2023/06/28 01:56:25;;;;;;;11.43;8.05;;;;;;;17.99;100.00;97204.41;5017013;28;20101;-79
2023/06/28 01:58:50;;;;;;;15.52;7.93;;;;;;;17.90;100.00;97210.72;5016828;28;20465;-79
2023/06/28 02:01:16;;;;;;;13.18;7.57;;;;;;;17.92;100.00;97214.13;5033298;28;20028;-79
2023/06/28 02:03:41;;;;;;;21.58;8.57;;;;;;;17.95;100.00;97208.41;5048944;28;20365;-79
2023/06/28 02:06:08;;;;;;;14.63;8.25;;;;;;;17.93;100.00;97215.84;5053427;28;20025;-78
2023/06/28 02:08:34;;;;;;;20.05;7.95;;;;;;;17.83;100.00;97205.91;5053147;28;20032;-79
2023/06/28 02:10:59;;;;;;;18.50;8.90;;;;;;;17.77;100.00;97217.31;5035273;28;20029;-78
2023/06/28 02:13:25;;;;;;;12.65;8.15;;;;;;;17.76;100.00;97221.03;5064035;28;20025;-78
2023/06/28 02:15:50;;;;;;;16.77;8.23;;;;;;;17.71;100.00;97223.34;5052779;28;20032;-77
2023/06/28 02:18:17;;;;;;;16.98;9.02;;;;;;;17.71;100.00;97223.34;5059352;28;20025;-78
2023/06/28 02:20:45;;;;;;;14.95;8.95;;;;;;;17.71;100.00;97226.03;5033521;28;20463;-78
2023/06/28 02:23:11;;;;;;;12.45;7.68;;;;;;;17.72;100.00;97226.84;5039968;28;20021;-78
2023/06/28 02:25:36;;;;;;;14.02;8.48;;;;;;;17.66;100.00;97225.59;5050562;28;20087;-78
2023/06/28 02:28:02;;;;;;;13.95;7.93;;;;;;;17.60;100.00;97220.78;5017499;28;20036;-78
2023/06/28 02:30:28;;;;;;;17.70;8.10;;;;;;;17.54;100.00;97226.75;5070804;28;20032;-78
2023/06/28 02:32:53;;;;;;;17.52;9.07;;;;;;;17.53;100.00;97229.59;5070527;28;20103;-78
2023/06/28 02:35:19;;;;;;;17.00;8.52;;;;;;;17.54;100.00;97226.75;5052879;28;20020;-79
2023/06/28 02:37:44;;;;;;;17.98;8.48;;;;;;;17.45;100.00;97233.03;5070627;28;20020;-79
2023/06/28 02:40:12;;;;;;;14.18;8.57;;;;;;;17.38;100.00;97226.47;5036188;28;20103;-80
2023/06/28 02:42:37;;;;;;;15.52;8.88;;;;;;;17.34;100.00;97227.78;5029806;28;20109;-80
2023/06/28 02:45:03;;;;;;;12.90;9.13;;;;;;;17.34;100.00;97235.91;5040843;28;20555;-79
2023/06/28 02:47:28;;;;;;;13.68;9.38;;;;;;;17.32;100.00;97243.28;5038125;28;20016;-78
2023/06/28 02:49:54;;;;;;;17.83;9.55;;;;;;;17.31;100.00;97242.44;5020243;28;20111;-78
2023/06/28 02:52:19;;;;;;;15.50;9.60;;;;;;;17.30;100.00;97234.47;5065824;28;20056;-78
2023/06/28 02:54:45;;;;;;;16.65;9.18;;;;;;;17.21;100.00;97243.44;5047588;28;20082;-78
2023/06/28 02:57:10;;;;;;;21.40;9.45;;;;;;;17.17;100.00;97240.16;5044184;28;20025;-78
2023/06/28 02:59:36;;;;;;;17.95;9.15;;;;;;;17.18;100.00;97243.72;5035853;28;20028;-78
2023/06/28 03:02:05;;;;;;;15.10;9.18;;;;;;;17.27;100.00;97248.28;5026352;28;20056;-78
2023/06/28 03:04:30;;;;;;;15.32;9.18;;;;;;;17.22;100.00;97251.44;5027865;28;20404;-78
2023/06/28 03:06:56;;;;;;;16.67;9.63;;;;;;;17.24;100.00;97249.44;5016402;28;20029;-77
2023/06/28 03:09:22;;;;;;;12.85;9.38;;;;;;;17.32;100.00;97262.22;5070132;28;20078;-77
2023/06/28 03:11:47;;;;;;;13.68;9.57;;;;;;;17.32;100.00;97254.09;5052663;28;20039;-78
2023/06/28 03:14:13;;;;;;;14.27;9.35;;;;;;;17.29;100.00;97241.72;5033249;28;20025;-77
2023/06/28 03:16:39;;;;;;;19.38;9.45;;;;;;;17.33;100.00;97251.25;5063324;28;20025;-78
2023/06/28 03:19:05;;;;;;;26.00;11.15;;;;;;;17.30;100.00;97248.84;5052309;28;20125;-77
2023/06/28 03:21:31;;;;;;;19.05;10.00;;;;;;;17.29;100.00;97246.28;5035964;28;20029;-77
2023/06/28 03:23:56;;;;;;;21.17;11.20;;;;;;;17.44;100.00;97261.09;5052423;28;20553;-78
2023/06/28 03:26:23;;;;;;;14.93;9.18;;;;;;;17.52;100.00;97258.50;5052376;28;20024;-78
2023/06/28 03:28:48;;;;;;;17.02;10.40;;;;;;;17.55;100.00;97266.34;5070224;28;20025;-78
2023/06/28 03:31:14;;;;;;;17.70;9.38;;;;;;;17.62;100.00;97266.63;5052326;28;20403;-78
2023/06/28 03:33:39;;;;;;;21.45;9.50;;;;;;;17.62;100.00;97274.75;5019931;28;20040;-78
2023/06/28 03:36:05;;;;;;;24.42;9.50;;;;;;;17.68;100.00;97287.69;5047858;28;20040;-78
2023/06/28 03:38:31;;;;;;;20.67;9.52;;;;;;;17.75;100.00;97284.25;5053299;28;20028;-78
2023/06/28 03:40:56;;;;;;;19.27;8.98;;;;;;;17.78;100.00;97281.25;5056377;28;20032;-78
2023/06/28 03:43:21;;;;;;;18.63;9.52;;;;;;;17.87;100.00;97285.78;5039171;28;20086;-79
2023/06/28 03:45:47;;;;;;;17.20;9.85;;;;;;;17.85;100.00;97273.41;5073926;28;20431;-77
2023/06/28 03:48:13;;;;;;;12.10;8.48;;;;;;;17.91;100.00;97277.38;5055653;28;20037;-78
2023/06/28 03:50:38;;;;;;;16.08;8.43;;;;;;;18.01;100.00;97280.91;5019493;28;20031;-78
2023/06/28 03:53:04;;;;;;;13.60;8.40;;;;;;;17.92;100.00;97274.53;5036057;28;20021;-78
2023/06/28 03:55:29;;;;;;;14.13;7.80;;;;;;;17.76;100.00;97268.88;5019225;28;20040;-77
2023/06/28 03:57:55;;;;;;;13.43;8.07;;;;;;;17.71;100.00;97260.34;5036028;28;20033;-78
2023/06/28 04:00:21;;;;;;;21.48;8.57;;;;;;;17.72;100.00;97267.44;5028101;28;20111;-77
2023/06/28 04:02:46;;;;;;;15.18;9.20;;;;;;;17.77;100.00;97266.03;5039122;28;20020;-78
2023/06/28 04:05:12;;;;;;;14.68;8.70;;;;;;;17.81;100.00;97270.13;5039141;28;20028;-78
2023/06/28 04:07:38;;;;;;;15.02;9.13;;;;;;;17.77;100.00;97262.47;5052540;28;20025;-79
2023/06/28 04:10:04;;;;;;;14.85;9.13;;;;;;;17.83;100.00;97276.28;5035704;28;20472;-79
2023/06/28 04:12:29;;;;;;;17.98;8.73;;;;;;;17.92;100.00;97279.09;5020392;28;20112;-79
2023/06/28 04:14:55;;;;;;;14.38;9.30;;;;;;;18.10;100.00;97285.44;5039460;28;20060;-82
2023/06/28 04:17:20;;;;;;;19.52;9.18;;;;;;;18.14;100.00;97284.16;5022498;28;20037;-83
2023/06/28 04:19:46;;;;;;;18.02;8.90;;;;;;;18.34;100.00;97291.19;5055862;28;20066;-83
2023/06/28 04:22:12;;;;;;;15.40;8.90;;;;;;;18.45;100.00;97277.47;5073716;28;20040;-84
2023/06/28 04:24:37;;;;;;;12.38;7.93;;;;;;;18.67;100.00;97277.06;5055387;28;20420;-83
2023/06/28 04:27:03;;;;;;;12.18;7.80;;;;;;;18.84;100.00;97273.53;5039198;28;20040;-83
2023/06/28 04:29:29;;;;;;;15.80;7.57;;;;;;;18.99;100.00;97264.88;5022101;28;20033;-84
2023/06/28 04:31:59;;;;;;;14.23;8.32;;;;;;;19.17;100.00;97263.88;5042806;28;20484;-85
2023/06/28 04:34:25;;;;;;;16.15;8.55;;;;;;;19.34;100.00;97259.47;5018873;28;20108;-84
2023/06/28 04:36:51;;;;;;;13.88;7.75;;;;;;;19.57;100.00;97257.97;5035738;28;20552;-84
2023/06/28 04:39:17;;;;;;;12.73;8.23;;;;;;;19.71;100.00;97254.72;5019337;28;20052;-79
2023/06/28 04:41:42;;;;;;;15.18;8.85;;;;;;;19.80;100.00;97250.19;5041937;28;20112;-83
2023/06/28 04:44:09;;;;;;;15.40;8.77;;;;;;;19.88;100.00;97261.09;5051202;28;20488;-84
2023/06/28 04:46:35;;;;;;;17.73;10.05;;;;;;;19.98;100.00;97270.84;5033178;28;20039;-80
2023/06/28 04:49:01;;;;;;;17.15;9.10;;;;;;;19.99;100.00;97268.97;5047295;28;20049;-82
2023/06/28 04:51:29;;;;;;;23.27;8.70;;;;;;;20.13;100.00;97262.94;5038759;28;20045;-75
2023/06/28 04:53:55;;;;;;;12.73;8.32;;;;;;;20.87;100.00;97257.69;5049188;28;20036;-76
2023/06/28 04:56:20;;;;;;;14.60;8.82;;;;;;;21.77;100.00;97239.59;5021473;28;20059;-76
2023/06/28 04:58:46;;;;;;;19.83;8.82;;;;;;;22.37;100.00;97243.56;5054978;28;20043;-79
2023/06/28 05:01:11;;;;;;;20.65;8.73;;;;;;;23.19;100.00;97245.72;5049255;28;20440;-81
2023/06/28 05:03:38;;;;;;;14.75;8.00;;;;;;;24.30;100.00;97240.53;5050640;28;20487;-80
2023/06/28 05:06:09;;;;;;;19.80;8.57;;;;;;;25.09;100.00;97236.97;5043154;28;20385;-76
2023/06/28 05:08:35;;;;;;;20.52;8.23;;;;;;;25.84;100.00;97233.75;5046970;28;20024;-79
2023/06/28 05:11:03;;;;;;;15.43;6.90;;;;;;;26.17;100.00;97237.63;5019485;28;20109;-83
2023/06/28 05:13:29;;;;;;;13.63;7.25;;;;;;;26.52;100.00;97234.88;5027477;28;20036;-84
2023/06/28 05:15:54;;;;;;;16.55;7.82;;;;;;;26.73;100.00;97237.53;5026699;28;20033;-81
2023/06/28 05:18:20;;;;;;;20.13;8.32;;;;;;;27.31;100.00;97247.94;5017317;28;20488;-81
2023/06/28 05:20:46;;;;;;;13.90;7.68;;;;;;;27.55;100.00;97259.41;5034982;28;20062;-78
2023/06/28 05:23:16;;;;;;;16.30;8.63;;;;;;;27.71;100.00;97239.78;5052210;28;20472;-80
2023/06/28 05:25:42;;;;;;;17.30;8.27;;;;;;;27.73;100.00;97251.41;5051323;28;20028;-78
2023/06/28 05:28:10;;;;;;;15.93;7.97;;;;;;;27.79;100.00;97250.56;5034598;28;20024;-80
2023/06/28 05:30:35;;;;;;;14.27;7.70;;;;;;;27.79;100.00;97253.31;5052177;28;20032;-82
2023/06/28 05:33:02;;;;;;;13.23;8.55;;;;;;;28.37;100.00;97244.22;5031277;28;20025;-80
2023/06/28 05:35:34;;;;;;;16.52;8.80;;;;;;;27.93;100.00;97246.78;5017787;28;20055;-84
2023/06/28 05:38:01;;;;;;;18.08;8.93;;;;;;;27.97;100.00;97237.88;5043853;28;20055;-81
2023/06/28 05:40:27;;;;;;;16.88;8.68;;;;;;;28.43;100.00;97253.53;5040086;28;20025;-78
2023/06/28 05:42:53;;;;;;;14.43;8.02;;;;;;;28.97;100.00;97255.97;5052674;28;20079;-76
2023/06/28 05:45:22;;;;;;;18.13;9.65;;;;;;;28.90;100.00;97247.75;5049180;28;20476;-77
2023/06/28 05:47:49;;;;;;;17.63;12.57;;;;;;;29.15;100.00;97252.50;5033310;28;20053;-76
2023/06/28 05:50:15;;;;;;;16.80;8.98;;;;;;;29.69;100.00;97240.97;5053536;28;20039;-77
2023/06/28 05:52:43;;;;;;;16.90;9.48;;;;;;;29.79;96.38;97228.41;5035201;28;20424;-80
2023/06/28 05:55:09;;;;;;;38.40;20.65;;;;;;;30.17;97.65;97235.78;5035860;28;20039;-77
2023/06/28 05:57:35;;;;;;;18.20;10.45;;;;;;;30.71;87.42;97219.31;5036928;28;20029;-83
2023/06/28 06:00:02;;;;;;;11.90;7.97;;;;;;;30.49;90.89;97215.28;5034984;28;20502;-84
2023/06/28 06:02:27;;;;;;;11.63;7.28;;;;;;;30.96;80.83;97203.53;5050547;28;20040;-79
2023/06/28 06:04:53;;;;;;;15.60;7.05;;;;;;;31.10;79.59;97202.25;5033900;28;20492;-76
2023/06/28 06:07:18;;;;;;;24.08;9.48;;;;;;;31.37;82.54;97205.53;5033902;28;20115;-76
2023/06/28 06:09:44;;;;;;;23.13;12.95;;;;;;;31.97;77.78;97200.78;5050524;28;20028;-77
2023/06/28 06:12:09;;;;;;;44.78;30.30;;;;;;;31.68;76.79;97212.75;5068136;28;20483;-77
2023/06/28 06:14:35;;;;;;;13.13;7.70;;;;;;;31.97;70.57;97208.25;5050460;28;20032;-76
2023/06/28 06:17:00;;;;;;;22.17;7.70;;;;;;;32.24;69.29;97212.25;5068155;28;20052;-81
2023/06/28 06:19:26;;;;;;;27.70;18.85;;;;;;;32.20;66.97;97202.78;5050722;28;20028;-77
2023/06/28 06:21:51;;;;;;;16.17;8.02;;;;;;;32.88;62.25;97205.78;5068178;28;20036;-77
2023/06/28 06:24:17;;;;;;;8.40;6.20;;;;;;;32.19;57.00;97198.31;5050127;28;20124;-79
2023/06/28 06:26:42;;;;;;;36.47;23.65;;;;;;;32.31;69.66;97212.16;5068828;28;20036;-77
2023/06/28 06:29:08;;;;;;;18.17;11.20;;;;;;;32.16;63.81;97209.88;5033477;28;20058;-77
2023/06/28 06:31:33;;;;;;;13.68;7.40;;;;;;;31.23;61.91;97208.69;5034022;28;20029;-81
2023/06/28 06:34:02;;;;;;;18.92;11.77;;;;;;;31.90;59.94;97213.06;5050124;28;20047;-79
2023/06/28 08:50:39;;;;;;;7.28;4.60;;;;;;;37.92;34.86;97158.03;5001037;28;20153;-76
2023/06/28 09:26:26;;;;;;;6.78;4.28;;;;;;;37.41;34.73;97147.81;4944626;29;20611;-77
2023/06/28 09:29:33;;;;;;;6.55;4.75;;;;;;;35.41;37.19;97146.94;4925952;29;20044;-78
2023/06/28 09:32:17;;;;;;;6.00;4.82;;;;;;;35.11;38.83;97157.75;5036000;28;20473;-77
2023/06/28 09:45:48;;;;;;;5.80;4.10;;;;;;;37.79;34.60;97147.38;5006743;28;20079;-77
2023/06/28 09:52:36;;;;;;;7.38;3.88;;;;;;;39.54;32.84;97140.88;4934707;29;20030;-77
2023/06/28 09:55:55;;;;;;;6.53;3.40;;;;;;;39.43;32.00;97137.31;4897566;29;20072;-77
2023/06/28 09:59:20;;;;;;;7.95;4.55;;;;;;;38.96;31.97;97137.78;4890344;29;20596;-76
2023/06/28 10:06:35;;;;;;;5.82;3.75;;;;;;;34.38;38.94;97163.66;4819868;29;20490;-77
2023/06/28 10:16:37;;;;;;;9.95;3.92;;;;;;;30.54;49.04;97190.63;4789441;29;20037;-77
2023/06/28 10:26:53;;;;;;;14.45;4.35;;;;;;;27.94;67.41;97221.81;4839711;29;20036;-77
2023/06/28 11:22:55;;;;;;;4.13;2.60;;;;;;;27.18;66.14;97280.84;4953210;28;20042;-77
2023/06/28 11:26:05;;;;;;;4.95;3.05;;;;;;;27.34;65.60;97293.38;4966122;28;20093;-76
2023/06/28 11:35:49;;;;;;;3.97;2.67;;;;;;;26.32;68.87;97290.47;4968532;28;20561;-76
2023/06/28 11:38:26;;;;;;;7.07;2.63;;;;;;;26.44;60.55;97293.50;4985037;28;20515;-76
2023/06/28 11:40:52;;;;;;;5.72;2.53;;;;;;;26.43;60.01;97291.78;5050720;28;20086;-76
2023/06/28 11:43:20;;;;;;;11.75;2.72;;;;;;;26.73;56.79;97295.19;5032530;28;20108;-76
2023/06/28 11:45:46;;;;;;;9.63;2.30;;;;;;;26.41;58.37;97302.13;5016666;28;20029;-76
2023/06/28 11:48:11;;;;;;;11.38;2.97;;;;;;;25.94;62.89;97297.28;5033087;28;20124;-76
2023/06/28 11:50:37;;;;;;;5.63;2.70;;;;;;;25.96;63.98;97306.19;5050658;28;20025;-76
2023/06/28 11:53:03;;;;;;;9.43;2.65;;;;;;;26.09;64.35;97316.38;5033055;28;20025;-76
2023/06/28 11:55:30;;;;;;;7.38;2.38;;;;;;;26.35;63.19;97320.25;5033260;28;20228;-76
2023/06/28 11:57:55;;;;;;;5.47;2.70;;;;;;;26.37;63.91;97315.41;5032809;28;20075;-76
2023/06/28 12:00:21;;;;;;;6.13;3.10;;;;;;;25.86;65.23;97327.59;5035728;28;20059;-75
2023/06/28 12:02:47;;;;;;;10.38;3.20;;;;;;;25.70;64.86;97325.09;5036357;28;20028;-75
2023/06/28 12:05:17;;;;;;;7.85;2.80;;;;;;;25.94;62.88;97319.22;5036289;28;20086;-76
2023/06/28 12:07:44;;;;;;;10.65;3.30;;;;;;;25.52;65.99;97332.91;5037412;28;20021;-77
2023/06/28 12:10:11;;;;;;;6.47;3.13;;;;;;;25.73;67.26;97331.03;5038414;28;20021;-77
2023/06/28 12:12:38;;;;;;;12.77;3.38;;;;;;;25.88;66.06;97325.47;5021514;28;20059;-76
2023/06/28 12:15:04;;;;;;;12.18;3.17;;;;;;;25.78;65.14;97333.16;5054942;28;20111;-76
2023/06/28 12:17:38;;;;;;;8.85;3.35;;;;;;;25.64;66.36;97342.31;5036837;28;20484;-76
2023/06/28 12:20:03;;;;;;;5.07;3.38;;;;;;;25.48;68.02;97334.28;5036549;28;20025;-76
2023/06/28 12:22:40;;;;;;;5.25;2.83;;;;;;;25.97;60.64;97329.78;5036518;28;20116;-76
2023/06/28 12:25:06;;;;;;;4.40;2.80;;;;;;;26.11;61.58;97320.66;5036028;28;20385;-76
2023/06/28 12:27:32;;;;;;;13.05;3.58;;;;;;;26.19;60.74;97334.25;5036226;28;20090;-76
2023/06/28 12:29:57;;;;;;;17.83;3.38;;;;;;;26.08;60.82;97334.75;5036235;28;20029;-75
2023/06/28 12:32:23;;;;;;;5.60;2.65;;;;;;;26.12;61.58;97344.25;5021530;28;20507;-75
2023/06/28 12:34:50;;;;;;;6.70;3.40;;;;;;;26.01;60.34;97341.22;5047452;28;20028;-77
2023/06/28 12:37:16;;;;;;;6.47;3.58;;;;;;;25.67;61.85;97355.63;5056068;28;20020;-76
2023/06/28 12:39:42;;;;;;;5.38;4.03;;;;;;;25.32;64.86;97355.41;5035785;28;20477;-77
2023/06/28 12:42:18;;;;;;;8.82;3.30;;;;;;;25.18;66.79;97356.28;5019248;28;20108;-77
2023/06/28 12:44:50;;;;;;;4.85;3.25;;;;;;;25.33;67.06;97357.09;5053370;28;20465;-77
2023/06/28 12:47:26;;;;;;;13.38;3.92;;;;;;;24.99;68.68;97361.47;5025745;28;20030;-77
2023/06/28 12:49:52;;;;;;;8.52;4.03;;;;;;;25.26;67.31;97358.03;5038952;28;20035;-77
2023/06/28 12:52:19;;;;;;;9.52;3.53;;;;;;;25.39;64.04;97344.53;5039741;28;20028;-78
2023/06/28 12:54:45;;;;;;;6.53;3.35;;;;;;;25.57;62.05;97339.50;5050536;28;20385;-78
2023/06/28 12:57:11;;;;;;;9.32;3.28;;;;;;;25.42;64.63;97346.03;5035912;28;20032;-77
2023/06/28 12:59:39;;;;;;;5.97;3.03;;;;;;;25.17;65.55;97345.50;5035549;28;20033;-77
2023/06/28 13:02:04;;;;;;;4.80;3.05;;;;;;;25.02;67.91;97351.00;5048393;28;20132;-78
2023/06/28 13:04:36;;;;;;;7.32;3.22;;;;;;;25.35;65.78;97352.28;5054457;28;20094;-77
2023/06/28 13:07:03;;;;;;;10.00;2.87;;;;;;;25.56;62.85;97345.19;5054129;28;20059;-78
2023/06/28 13:09:28;;;;;;;4.32;3.03;;;;;;;25.99;59.38;97343.31;5057147;28;20048;-77
2023/06/28 13:11:54;;;;;;;5.20;2.75;;;;;;;25.81;60.15;97330.03;5048088;28;20040;-79
2023/06/28 13:14:20;;;;;;;5.72;2.47;;;;;;;26.07;59.26;97341.28;5050876;28;20033;-79
2023/06/28 13:16:46;;;;;;;4.70;2.30;;;;;;;26.03;58.79;97337.22;5047491;28;20028;-78
2023/06/28 13:19:11;;;;;;;7.57;3.00;;;;;;;26.33;57.77;97355.25;5057443;28;20112;-78
2023/06/28 13:21:37;;;;;;;5.85;2.65;;;;;;;26.00;56.76;97339.50;5034799;28;20532;-77
2023/06/28 13:24:03;;;;;;;10.30;2.65;;;;;;;26.19;58.20;97339.72;5049356;28;20039;-77
2023/06/28 13:26:29;;;;;;;5.13;2.42;;;;;;;25.69;58.17;97339.81;5032435;28;20021;-77
2023/06/28 13:28:55;;;;;;;2.55;2.15;;;;;;;25.65;59.89;97341.28;5046457;28;20074;-75
2023/06/28 13:31:20;;;;;;;7.28;3.08;;;;;;;25.25;60.36;97349.00;5046412;28;20064;-76
2023/06/28 13:33:46;;;;;;;12.50;3.03;;;;;;;24.66;64.57;97350.03;5048679;28;20045;-76
2023/06/28 13:36:12;;;;;;;16.02;2.70;;;;;;;24.28;67.03;97368.34;5054990;28;20037;-75
2023/06/28 13:38:38;;;;;;;11.50;3.40;;;;;;;23.74;72.88;97370.31;5072317;28;20056;-75
2023/06/28 13:41:04;;;;;;;4.25;2.90;;;;;;;23.82;72.62;97380.31;5054870;28;20035;-76
2023/06/28 13:43:30;;;;;;;3.22;2.50;;;;;;;23.79;70.99;97372.47;5038038;28;20515;-77
2023/06/28 13:45:56;;;;;;;4.93;3.40;;;;;;;23.58;71.63;97379.47;5037299;28;20111;-76
2023/06/28 13:48:22;;;;;;;11.80;2.95;;;;;;;23.47;73.35;97389.94;5054280;28;20020;-76
2023/06/28 13:50:47;;;;;;;8.95;2.97;;;;;;;23.15;76.22;97390.91;5071283;28;20024;-75
2023/06/28 13:53:13;;;;;;;12.30;3.63;;;;;;;23.12;78.31;97397.59;5054151;28;20083;-75
2023/06/28 13:55:38;;;;;;;12.23;5.38;;;;;;;23.01;79.68;97397.94;5053718;28;20040;-76
2023/06/28 13:58:04;;;;;;;18.63;5.05;;;;;;;22.71;80.51;97398.72;5033851;28;20036;-77
2023/06/28 14:00:30;;;;;;;17.25;5.20;;;;;;;22.47;83.55;97396.88;5068764;28;20028;-76
2023/06/28 14:02:55;;;;;;;18.52;4.88;;;;;;;22.18;86.21;97412.06;5052336;28;20532;-76
2023/06/28 14:05:21;;;;;;;16.70;5.82;;;;;;;21.95;88.53;97415.47;5053741;28;20051;-76
2023/06/28 14:07:47;;;;;;;10.18;5.18;;;;;;;21.85;89.38;97420.19;5070996;28;20033;-75
2023/06/28 14:10:12;;;;;;;13.02;3.75;;;;;;;21.74;90.99;97415.06;5071915;28;20466;-76
2023/06/28 14:12:38;;;;;;;12.02;5.07;;;;;;;21.79;92.26;97418.13;5037127;28;20024;-75
2023/06/28 14:15:04;;;;;;;12.20;4.30;;;;;;;21.46;93.37;97419.06;5069706;28;20115;-75
2023/06/28 14:17:30;;;;;;;13.93;4.80;;;;;;;21.25;94.45;97426.84;5036824;28;20032;-75
2023/06/28 14:19:56;;;;;;;6.72;3.90;;;;;;;21.04;94.83;97424.50;5053506;28;20035;-75
2023/06/28 14:22:21;;;;;;;6.10;3.40;;;;;;;21.10;96.55;97426.59;5053204;28;20052;-75
2023/06/28 14:24:47;;;;;;;6.32;3.40;;;;;;;20.94;95.38;97431.94;5071384;28;20052;-75
2023/06/28 14:27:13;;;;;;;7.03;2.80;;;;;;;20.92;93.72;97432.06;5053359;28;20318;-76
2023/06/28 14:29:39;;;;;;;4.78;2.92;;;;;;;20.99;95.35;97438.59;5053392;28;20027;-77
2023/06/28 14:32:05;;;;;;;4.63;2.80;;;;;;;20.95;95.70;97439.91;5036306;28;20028;-77
2023/06/28 14:34:30;;;;;;;22.30;12.05;;;;;;;20.77;98.33;97441.84;5047021;28;20512;-79
2023/06/28 14:36:56;;;;;;;17.85;11.02;;;;;;;20.51;99.01;97439.16;5032826;28;20033;-77
2023/06/28 14:39:23;;;;;;;4.93;3.47;;;;;;;20.43;98.46;97439.06;5029536;28;20484;-76
2023/06/28 14:41:48;;;;;;;5.25;3.42;;;;;;;20.51;98.72;97435.59;5052771;28;20027;-76
2023/06/28 14:44:15;;;;;;;10.90;4.25;;;;;;;20.50;98.40;97433.88;5052767;28;20032;-79
2023/06/28 14:46:41;;;;;;;7.32;3.47;;;;;;;20.45;96.97;97437.06;5053344;28;20024;-77
2023/06/28 14:49:06;;;;;;;11.73;2.97;;;;;;;20.54;95.53;97438.84;5040136;28;20039;-76
2023/06/28 14:51:32;;;;;;;6.15;3.65;;;;;;;20.47;96.94;97439.63;5032980;28;20104;-76
2023/06/28 14:53:57;;;;;;;9.93;3.33;;;;;;;20.50;95.13;97429.28;5034395;28;20061;-76
2023/06/28 14:56:23;;;;;;;5.45;3.05;;;;;;;20.63;93.31;97428.88;5068020;28;20028;-77
2023/06/28 14:58:48;;;;;;;4.50;2.92;;;;;;;20.54;94.41;97430.69;5052843;28;20503;-76
2023/06/28 15:01:14;;;;;;;5.32;2.88;;;;;;;20.54;93.58;97427.97;5069375;28;20031;-77
2023/06/28 15:03:40;;;;;;;5.32;3.42;;;;;;;20.39;94.67;97443.16;5052918;28;20024;-76
2023/06/28 15:06:05;;;;;;;7.97;3.40;;;;;;;20.41;96.03;97438.41;5052464;28;20131;-76
2023/06/28 15:08:32;;;;;;;6.82;3.08;;;;;;;20.28;93.27;97428.94;5051510;28;20013;-76
2023/06/28 15:10:58;;;;;;;6.80;3.92;;;;;;;20.02;95.71;97437.03;5052550;28;20115;-77
2023/06/28 15:13:23;;;;;;;4.13;3.20;;;;;;;19.96;97.48;97440.38;5024715;28;20507;-77
2023/06/28 15:15:49;;;;;;;9.68;3.85;;;;;;;19.88;98.78;97434.84;5016222;28;20033;-76
2023/06/28 15:18:14;;;;;;;6.07;3.50;;;;;;;19.95;98.06;97434.09;5051713;28;20036;-76
2023/06/28 15:20:40;;;;;;;7.65;3.38;;;;;;;20.07;96.25;97426.53;5052653;28;20024;-76
2023/06/28 15:23:06;;;;;;;4.35;2.70;;;;;;;20.08;95.30;97422.81;5062121;28;20103;-76
2023/06/28 15:25:32;;;;;;;6.05;3.40;;;;;;;20.01;96.21;97430.75;5016257;28;20408;-76
2023/06/28 15:27:58;;;;;;;7.57;3.47;;;;;;;20.08;97.10;97420.09;5045066;28;20020;-75
2023/06/28 15:30:24;;;;;;;11.13;2.80;;;;;;;20.06;96.84;97418.56;5028423;28;20036;-76
2023/06/28 15:32:49;;;;;;;9.60;3.47;;;;;;;19.99;96.22;97427.31;5036937;28;20447;-76
2023/06/28 15:35:15;;;;;;;10.00;3.40;;;;;;;19.88;98.71;97427.56;5071995;28;20138;-76
2023/06/28 15:37:40;;;;;;;19.10;9.18;;;;;;;19.77;97.28;97425.09;5051285;28;20035;-75
2023/06/28 15:40:06;;;;;;;26.13;14.70;;;;;;;19.69;100.00;97433.13;5031658;28;20521;-76
2023/06/28 15:42:32;;;;;;;13.68;8.07;;;;;;;19.48;100.00;97427.16;5065398;28;20115;-76
2023/06/28 15:44:57;;;;;;;6.78;3.70;;;;;;;19.62;100.00;97437.50;5062710;28;20457;-78